Station: Charles Point

  Atmospheric Gas Attenuation - ITU Rec 676-11   --------------- db/100km ---------------
Date Time Temp RH % AH g/m3 Dew Point Wind Direction Speed kph Gust kph Barometer mB Rainfall Since 9am 24GHz 47GHz 76GHz 122GHz 134GHz 241GHz
07 06:50 21.7 97 18.5 21.2 6 7 1013.1 0 40.2 40.7 78.2 206.8 226.9 787.7
07 06:40 21.8 96 18.42 21.1 6 6 1013.1 0 40.1 40.5 77.7 205.5 225.3 782.2
07 06:30 21.9 96 18.52 21.2 4 7 1011.4 0 40.3 40.5 78.0 206.2 226.4 785.8
07 06:20 22.1 96 18.74 21.4 6 9 1013.1 0 40.7 40.9 78.9 208.8 229.5 796.9
07 06:10 22 96 18.63 21.3 6 7 1013.1 0 40.5 40.8 78.5 207.6 228.1 791.8
07 06:00 22.1 97 18.93 21.6 6 7 1011 0 41.1 41.2 79.7 210.9 232.3 806.3
07 05:50 22 97 18.82 21.5 6 7 1013.1 0 40.9 41.2 79.4 210.1 231.1 802.4
07 05:40 21.9 97 18.72 21.4 6 6 1013.1 0 40.7 41.0 79.1 209.1 229.8 797.9
07 05:30 22.1 97 18.93 21.6 6 9 1010.9 0 41.1 41.2 79.7 210.9 232.2 806.3
07 05:20 22 97 18.82 21.5 6 7 1013.1 0 40.9 41.2 79.4 210.1 231.1 802.4
07 05:10 22 97 18.82 21.5 6 9 1013.1 0 40.9 41.2 79.4 210.1 231.1 802.4
07 04:50 22.2 97 19.04 21.7 7 7 1013.1 0 41.3 41.5 80.3 212.4 234.0 812.5
07 04:40 22.1 97 18.93 21.6 4 6 1013.1 0 41.1 41.3 79.9 211.3 232.6 807.5
07 04:30 21.9 97 18.72 21.4 6 9 1010.7 0 40.7 40.9 78.9 208.7 229.5 796.6
07 04:20 21.7 97 18.5 21.2 4 4 1013.1 0 40.2 40.7 78.2 206.8 226.9 787.7
07 04:10 21.7 97 18.5 21.2 6 7 1013.1 0 40.2 40.7 78.2 206.8 226.9 787.7
07 04:00 21.5 97 18.29 21 4 7 1010.7 0 39.8 40.2 77.2 204.2 223.8 776.9
07 03:50 21.5 97 18.29 21 4 6 1013.1 0 39.8 40.4 77.4 204.6 224.2 778.2
07 03:40 21.6 97 18.4 21.1 4 4 1013.1 0 40.0 40.5 77.8 205.7 225.6 783.2
07 03:30 21.2 97 17.97 20.7 0 0 1010.8 0 39.2 39.8 76.0 200.9 219.6 762.3
07 03:20 21.4 97 18.18 20.9 0 0 1013.1 0 39.6 40.2 76.9 203.4 222.7 773.1
07 03:10 21.2 97 17.97 20.7 0 0 1013.1 0 39.2 39.9 76.1 201.2 220.0 763.5
07 03:00 21.2 97 17.97 20.7 0 0 1010.9 0 39.2 39.8 76.0 200.9 219.7 762.4
07 02:50 21.5 97 18.29 21 0 0 1013.1 0 39.8 40.4 77.4 204.6 224.2 778.2
07 02:40 21.3 97 18.08 20.8 2 4 1013.1 0 39.4 40.0 76.5 202.4 221.4 768.6
07 02:30 21.4 97 18.18 20.9 4 6 1011 0 39.6 40.1 76.8 203.1 222.4 772.0
07 02:20 21.3 97 18.08 20.8 4 4 1013.1 0 39.4 40.0 76.5 202.4 221.4 768.6
07 02:10 21.6 97 18.4 21.1 6 6 1013.1 0 40.0 40.5 77.8 205.7 225.6 783.2
07 02:00 21.8 97 18.61 21.3 4 7 1011.1 0 40.5 40.7 78.5 207.6 228.1 791.7
07 01:50 21.3 97 18.08 20.8 4 4 1013.1 0 39.4 40.0 76.5 202.4 221.4 768.6
07 01:40 21.3 97 18.08 20.8 6 6 1013.1 0 39.4 40.0 76.5 202.4 221.4 768.6
07 01:30 21.6 97 18.4 21.1 4 6 1011.3 0 40.0 40.4 77.7 205.5 225.4 782.3
07 01:20 21.4 97 18.18 20.9 4 4 1013.1 0 39.6 40.2 76.9 203.4 222.7 773.1
07 01:10 21.5 97 18.29 21 4 6 1013.1 0 39.8 40.4 77.4 204.6 224.2 778.2
07 01:00 21.4 97 18.18 20.9 4 6 1011.4 0 39.6 40.1 76.8 203.2 222.5 772.2
07 00:50 21.4 96 18 20.7 4 4 1013.1 0 39.2 39.8 76.0 201.1 219.9 763.1
07 00:40 21.3 96 17.89 20.6 4 6 1013.1 0 39.0 39.7 75.6 199.9 218.4 758.1
07 00:30 21.4 95 17.81 20.6 0 4 1011.7 0 38.8 39.4 75.0 198.4 216.6 752.0
07 00:20 21.5 94 17.72 20.5 0 0 1013.1 0 38.6 39.2 74.6 197.2 215.2 746.8
07 00:10 21.7 93 17.74 20.5 2 4 1013.1 0 38.6 39.2 74.5 197.0 214.9 745.9
07 00:00 21.8 92 17.65 20.4 0 0 1011.7 0 38.4 38.9 73.9 195.3 213.0 739.3
06 23:50 22 91 17.66 20.4 0 0 1013.1 0 38.4 38.9 73.8 195.2 212.8 738.5
06 23:40 22.2 91 17.86 20.6 2 2 1013.1 0 38.8 39.2 74.6 197.2 215.3 747.4
06 23:30 22.4 91 18.07 20.9 4 6 1012 0 39.3 39.4 75.3 199.2 217.9 756.3
06 23:20 22.5 91 18.17 20.9 2 4 1013.1 0 39.4 39.6 75.8 200.3 219.3 761.3
06 23:10 22.5 91 18.17 20.9 4 6 1013.1 0 39.4 39.6 75.8 200.3 219.3 761.3
06 23:00 22.4 90 17.87 20.7 4 6 1012.1 0 38.8 39.1 74.4 196.6 214.7 745.5
06 22:50 22.6 89 17.88 20.7 2 4 1013.1 0 38.8 39.0 74.3 196.4 214.5 744.6
06 22:40 22.6 89 17.88 20.7 4 6 1013.1 0 38.8 39.0 74.3 196.4 214.5 744.6
06 22:30 22.6 88 17.68 20.5 4 6 1012 0 38.4 38.6 73.3 193.7 211.2 733.2
06 22:20 22.8 87 17.68 20.5 4 6 1013.1 0 38.4 38.6 73.1 193.4 210.8 731.8
06 22:10 23.1 85 17.57 20.4 0 0 1013.1 0 38.1 38.2 72.3 191.2 208.3 723.1
06 22:00 23.4 84 17.66 20.5 0 0 1011.9 0 38.3 38.2 72.4 191.4 208.6 724.4
06 21:50 23.6 84 17.86 20.7 0 0 1013.1 0 38.7 38.5 73.2 193.6 211.3 733.7
06 21:40 23.8 83 17.85 20.7 2 2 1013.1 0 38.6 38.4 73.0 192.9 210.6 731.2
06 21:30 24 83 18.06 20.9 4 9 1011.7 0 39.1 38.7 73.7 194.8 213.0 739.7
06 21:20 24.1 82 17.94 20.8 6 7 1013.1 0 38.8 38.5 73.1 193.3 211.1 733.1
06 21:10 24.1 82 17.94 20.8 6 7 1013.1 0 38.8 38.5 73.1 193.3 211.1 733.1
06 21:00 24.2 82 18.04 20.9 7 11 1011.3 0 39.0 38.5 73.4 194.0 212.1 736.5
06 20:50 24.3 82 18.15 21 6 6 1013.1 0 39.2 38.8 73.9 195.4 213.8 742.3
06 20:40 24.4 82 18.25 21.1 7 9 1013.1 0 39.4 38.9 74.3 196.4 215.0 746.6
06 20:30 24.4 83 18.47 21.3 7 15 1011.1 0 39.9 39.2 75.2 198.8 218.1 757.3
06 20:20 24.5 82 18.35 21.2 9 11 1013.1 0 39.6 39.0 74.6 197.4 216.2 751.0
06 20:10 24.7 81 18.33 21.2 15 19 1013.1 0 39.6 38.9 74.3 196.6 215.4 747.9
06 20:00 24.7 81 18.33 21.2 11 22 1010.7 0 39.6 38.8 74.2 196.2 215.0 746.7
06 19:50 24.7 81 18.33 21.2 11 15 1013.1 0 39.6 38.9 74.3 196.6 215.4 747.9
06 19:40 24.8 80 18.21 21.1 13 19 1013.1 0 39.3 38.6 73.7 194.8 213.2 740.6
06 19:30 24.8 80 18.21 21.1 9 17 1010.4 0 39.3 38.5 73.5 194.4 212.8 739.2
06 19:20 24.8 80 18.21 21.1 7 11 1013.1 0 39.3 38.6 73.7 194.8 213.2 740.6
06 19:10 24.9 80 18.31 21.2 13 19 1013.1 0 39.5 38.8 74.0 195.8 214.5 744.9
06 19:00 24.9 80 18.31 21.2 9 19 1010.2 0 39.5 38.7 73.9 195.4 214.0 743.4
06 18:50 25 80 18.42 21.3 7 13 1013.1 0 39.7 38.9 74.5 196.9 215.9 749.7
06 18:40 25.2 79 18.39 21.3 7 13 1013.1 0 39.6 38.8 74.1 196.0 214.8 746.2
06 18:30 25.4 78 18.36 21.3 9 20 1010.1 0 39.6 38.5 73.6 194.7 213.4 741.1
06 18:20 25.8 76 18.3 21.4 6 9 1013.1 0 39.4 38.4 73.1 193.4 211.8 735.6
06 18:10 26.1 74 18.12 21.1 13 20 1013.1 0 39.0 37.9 72.0 190.5 208.2 723.4
06 18:00 26.3 71 17.58 20.8 11 20 1010.1 0 37.8 36.7 69.2 183.0 199.3 692.3
06 17:50 26.7 71 17.97 21 6 9 1013.1 0 38.6 37.3 70.8 187.2 204.4 710.0
06 17:40 26.9 69 17.66 20.9 11 15 1013.1 0 37.9 36.7 69.2 183.0 199.3 692.4
06 17:30 27.1 70 18.12 21.2 11 19 1010.1 0 38.9 37.3 70.9 187.5 205.1 712.5
06 17:20 26.9 69 17.66 20.9 13 19 1013.1 0 37.9 36.7 69.2 183.0 199.3 692.4
06 17:10 26.8 69 17.56 20.8 11 15 1013.1 0 37.7 36.6 68.9 182.1 198.1 688.3
06 17:00 27.1 66 17.08 20.4 13 24 1009.9 0 36.7 35.5 66.3 175.3 190.0 660.1
06 16:50 27.4 69 18.16 21.2 9 13 1013.1 0 38.9 37.4 71.0 187.7 205.3 713.2
06 16:40 27.8 67 18.02 21.1 9 17 1013.1 0 38.6 37.0 70.0 185.1 202.2 702.4
06 16:30 27.9 67 18.12 21.4 11 24 1009.7 0 38.8 36.9 70.1 185.5 202.9 704.9
06 16:20 27.6 69 18.36 21.4 13 24 1013.1 0 39.3 37.7 71.7 189.6 207.6 721.5
06 16:10 28 67 18.22 21.5 9 13 1013.1 0 39.0 37.2 70.7 187.0 204.5 710.7
06 16:00 28.1 67 18.32 21.4 11 24 1009.6 0 39.2 37.2 70.8 187.4 205.2 713.0
06 15:50 27.6 67 17.83 21.1 17 22 1013.1 0 38.2 36.7 69.3 183.3 199.9 694.7
06 15:40 28.2 66 18.15 21.4 11 13 1013.1 0 38.8 37.0 70.2 185.7 203.0 705.3
06 15:30 28 66 17.95 21.1 13 22 1009.8 0 38.5 36.6 69.3 183.3 200.1 695.5
06 15:20 28.4 66 18.35 21.4 9 19 1013.1 0 39.2 37.3 70.9 187.5 205.3 713.5
06 15:10 28.8 64 18.19 21.5 11 19 1013.1 0 38.9 36.8 69.8 184.7 201.9 701.8
06 15:00 29 66 18.96 22 13 26 1010 0 40.5 38.0 72.9 192.8 212.1 737.1
06 14:50 28.1 63 17.23 20.6 19 28 1013.1 0 36.9 35.4 66.3 175.2 190.1 660.4
06 14:40 28.8 64 18.19 21.5 13 20 1013.1 0 38.9 36.8 69.8 184.7 201.9 701.8
06 14:30 28.2 65 17.87 21 13 22 1010.3 0 38.3 36.4 68.8 182.0 198.5 689.9
06 14:20 28.6 64 17.99 21.1 11 20 1013.1 0 38.5 36.6 69.1 182.8 199.6 693.6
06 14:10 28.8 64 18.19 21.5 6 9 1013.1 0 38.9 36.8 69.8 184.7 201.9 701.8

Last Refresh: 07-Aug-2020 07:00:57

Most of the information presented on this site is sourced from the Bureau of Meteorology.  Copyright in all material sourced from the Bureau of Meteorology resides with the Commonwealth of Australia.